Time;durP1;ratioP1;P1;durP2;ratioP2;P2;SDS_P1;SDS_P2;PMS_P1;PMS_P2;Temp;Humidity;BMP_temperature;BMP_pressure;BME280_temperature;BME280_humidity;BME280_pressure;Samples;Min_cycle;Max_cycle;Signal;HPM_P1;HPM_P2
2022/08/02 00:01:35;;;;;;;;;;;;;;;33.41;32.38;100421.44;4360998;32;19967;-68
2022/08/02 00:04:00;;;;;;;;;;;;;;;33.57;32.10;100422.75;4358896;32;19955;-68
2022/08/02 00:06:26;;;;;;;;;;;;;;;33.47;32.32;100416.84;4358987;32;20006;-68
2022/08/02 00:08:52;;;;;;;;;;;;;;;33.54;32.29;100435.62;4358539;32;20036;-68
2022/08/02 00:11:18;;;;;;;;;;;;;;;33.27;33.07;100431.91;4359097;32;19967;-68
2022/08/02 00:13:44;;;;;;;;;;;;;;;33.43;32.77;100415.75;4358775;32;20005;-68
2022/08/02 00:16:10;;;;;;;;;;;;;;;33.70;32.35;100414.34;4359848;32;20036;-68
2022/08/02 00:18:36;;;;;;;;;;;;;;;33.87;32.15;100393.09;4357944;32;20337;-69
2022/08/02 00:21:01;;;;;;;;;;;;;;;33.14;33.34;100385.66;4362612;32;20249;-69
2022/08/02 00:23:27;;;;;;;;;;;;;;;33.03;33.86;100375.31;4362638;32;20336;-69
2022/08/02 00:25:52;;;;;;;;;;;;;;;32.66;34.93;100376.56;4358499;32;20248;-69
2022/08/02 00:28:18;;;;;;;;;;;;;;;32.26;35.56;100367.31;4356418;32;20001;-69
2022/08/02 00:30:43;;;;;;;;;;;;;;;32.23;36.12;100366.37;4360011;32;19994;-69
2022/08/02 00:33:09;;;;;;;;;;;;;;;31.84;36.97;100364.47;4360019;32;20006;-69
2022/08/02 00:35:34;;;;;;;;;;;;;;;32.08;37.02;100365.75;4360194;32;19970;-68
2022/08/02 00:38:00;;;;;;;;;;;;;;;31.45;38.35;100355.87;4360995;32;19958;-68
2022/08/02 00:40:25;;;;;;;;;;;;;;;31.45;38.42;100358.78;4359427;32;19998;-68
2022/08/02 00:43:07;;;;;;;;;;;;;;;31.41;39.23;100367.91;4361802;32;20977;-68
2022/08/02 00:45:33;;;;;;;;;;;;;;;30.83;40.18;100359.75;4360257;32;20304;-68
2022/08/02 00:47:59;;;;;;;;;;;;;;;31.04;40.09;100351.47;4359904;32;20010;-68
2022/08/02 00:50:25;;;;;;;;;;;;;;;31.19;39.95;100342.66;4359251;32;19955;-68
2022/08/02 00:52:50;;;;;;;;;;;;;;;31.09;40.37;100335.94;4360785;32;20344;-68
2022/08/02 00:55:16;;;;;;;;;;;;;;;30.95;40.60;100345.56;4359583;32;20009;-68
2022/08/02 00:57:41;;;;;;;;;;;;;;;30.94;40.68;100335.28;4358929;32;20932;-68
2022/08/02 01:00:08;;;;;;;;;;;;;;;31.00;40.48;100341.63;4358986;32;20057;-68
2022/08/02 01:02:34;;;;;;;;;;;;;;;30.66;41.09;100334.25;4363766;32;20265;-68
2022/08/02 01:04:59;;;;;;;;;;;;;;;31.03;40.54;100332.50;4360323;32;20009;-68
2022/08/02 01:07:25;;;;;;;;;;;;;;;30.97;40.56;100334.09;4356359;32;20035;-68
2022/08/02 01:09:51;;;;;;;;;;;;;;;31.26;39.90;100327.28;4359696;32;19958;-68
2022/08/02 01:12:17;;;;;;;;;;;;;;;31.37;39.54;100326.84;4359051;32;20076;-69
2022/08/02 01:14:45;;;;;;;;;;;;;;;31.22;39.98;100326.94;4358047;32;19959;-68
2022/08/02 01:17:17;;;;;;;;;;;;;;;31.57;39.36;100314.06;4358678;32;20033;-68
2022/08/02 01:19:53;;;;;;;;;;;;;;;31.40;39.45;100316.16;4357951;32;20351;-69
2022/08/02 01:22:38;;;;;;;;;;;;;;;31.81;38.77;100310.34;4356954;32;19977;-69
2022/08/02 01:27:55;;;;;;;;;;;;;;;32.39;38.00;100329.91;3960273;31;15720383;-68
2022/08/02 01:30:21;;;;;;;;;;;;;;;32.39;38.00;100329.91;4435242;32;20010;-68
2022/08/02 01:32:49;;;;;;;;;;;;;;;31.81;38.67;100315.41;4436130;32;20473;-68
2022/08/02 01:35:19;;;;;;;;;;;;;;;32.00;38.23;100315.59;4436283;32;20054;-68
2022/08/02 01:37:50;;;;;;;;;;;;;;;32.19;37.71;100307.81;4434394;32;19992;-68
2022/08/02 01:40:20;;;;;;;;;;;;;;;32.98;36.56;100306.41;4434720;32;19963;-68
2022/08/02 01:42:47;;;;;;;;;;;;;;;32.93;36.64;100306.66;4436212;32;20004;-68
2022/08/02 01:45:13;;;;;;;;;;;;;;;32.69;36.59;100302.50;4434676;32;20037;-68
2022/08/02 01:47:40;;;;;;;;;;;;;;;32.82;36.52;100292.62;4433302;32;20016;-68
2022/08/02 01:50:06;;;;;;;;;;;;;;;33.29;35.87;100289.94;4435189;32;19996;-68
2022/08/02 01:52:34;;;;;;;;;;;;;;;33.33;35.62;100295.31;4435986;32;20167;-69
2022/08/02 01:55:04;;;;;;;;;;;;;;;33.21;35.54;100289.28;4435319;32;19989;-67
2022/08/02 01:57:32;;;;;;;;;;;;;;;32.96;36.18;100287.94;4434432;32;20345;-67
2022/08/02 02:00:01;;;;;;;;;;;;;;;32.53;36.66;100286.62;4435406;32;19999;-67
2022/08/02 02:02:27;;;;;;;;;;;;;;;32.77;36.61;100279.09;4436781;32;19976;-67
2022/08/02 02:04:54;;;;;;;;;;;;;;;32.55;37.05;100257.66;4434150;32;20009;-67
2022/08/02 02:07:21;;;;;;;;;;;;;;;32.27;37.34;100267.69;4432181;32;20021;-68
2022/08/02 02:09:53;;;;;;;;;;;;;;;32.62;36.71;100259.69;4434683;32;19961;-68
2022/08/02 02:12:26;;;;;;;;;;;;;;;32.19;37.51;100261.22;4434483;32;19962;-68
2022/08/02 02:14:55;;;;;;;;;;;;;;;32.54;37.06;100250.28;4434851;32;19972;-68
2022/08/02 02:17:21;;;;;;;;;;;;;;;32.79;36.75;100258.84;4434476;32;20004;-68
2022/08/02 02:19:48;;;;;;;;;;;;;;;31.70;38.40;100269.31;4435290;32;19962;-68
2022/08/02 02:22:13;;;;;;;;;;;;;;;31.64;38.75;100274.63;4433275;32;20388;-68
2022/08/02 02:24:39;;;;;;;;;;;;;;;31.83;38.61;100261.06;4434955;32;19990;-68
2022/08/02 02:27:06;;;;;;;;;;;;;;;32.21;38.23;100275.19;4433609;32;19971;-68
2022/08/02 02:29:32;;;;;;;;;;;;;;;31.60;39.38;100277.94;4435643;32;19969;-68
2022/08/02 02:31:59;;;;;;;;;;;;;;;32.11;38.54;100268.50;4435519;32;19986;-68
2022/08/02 02:34:30;;;;;;;;;;;;;;;31.91;38.90;100258.81;4434614;32;20002;-68
2022/08/02 02:36:58;;;;;;;;;;;;;;;32.40;38.08;100246.97;4435792;32;19957;-68
2022/08/02 02:39:25;;;;;;;;;;;;;;;32.67;37.41;100237.47;4423332;32;20056;-68
2022/08/02 02:41:53;;;;;;;;;;;;;;;32.34;37.78;100231.91;4425312;32;19994;-68
2022/08/02 02:44:19;;;;;;;;;;;;;;;32.75;37.36;100241.03;4424838;32;20376;-68
2022/08/02 02:46:46;;;;;;;;;;;;;;;32.42;37.83;100235.50;4423731;32;20012;-69
2022/08/02 02:49:13;;;;;;;;;;;;;;;32.04;38.76;100235.19;4423900;32;20000;-69
2022/08/02 02:51:39;;;;;;;;;;;;;;;32.18;38.53;100224.72;4424036;32;19997;-68
2022/08/02 02:54:05;;;;;;;;;;;;;;;31.89;39.07;100226.66;4424326;32;20007;-68
2022/08/02 02:56:31;;;;;;;;;;;;;;;31.86;39.19;100222.03;4423132;32;19997;-68
2022/08/02 02:58:59;;;;;;;;;;;;;;;32.15;38.83;100223.00;4423935;32;20310;-68
2022/08/02 03:01:26;;;;;;;;;;;;;;;32.52;38.08;100224.66;4424698;32;19945;-68
2022/08/02 03:03:52;;;;;;;;;;;;;;;31.98;38.94;100237.59;4423143;32;20024;-68
2022/08/02 03:06:18;;;;;;;;;;;;;;;31.66;39.78;100239.91;4424411;32;20366;-68
2022/08/02 03:08:44;;;;;;;;;;;;;;;31.66;39.79;100231.16;4422257;32;19961;-68
2022/08/02 03:11:10;;;;;;;;;;;;;;;31.51;40.09;100219.69;4424244;32;20037;-68
2022/08/02 03:13:36;;;;;;;;;;;;;;;32.12;38.80;100217.66;4425868;32;20014;-68
2022/08/02 03:16:02;;;;;;;;;;;;;;;31.87;39.21;100206.09;4423892;32;19989;-68
2022/08/02 03:18:29;;;;;;;;;;;;;;;31.92;39.19;100205.09;4422017;32;19949;-68
2022/08/02 03:21:04;;;;;;;;;;;;;;;32.18;38.83;100210.16;4424385;32;20000;-68
2022/08/02 03:23:29;;;;;;;;;;;;;;;32.10;39.00;100206.59;4424191;32;20020;-69
2022/08/02 03:25:56;;;;;;;;;;;;;;;31.93;39.44;100206.59;4424249;32;19998;-68
2022/08/02 03:28:21;;;;;;;;;;;;;;;32.14;38.96;100206.16;4421911;32;19954;-68
2022/08/02 03:30:47;;;;;;;;;;;;;;;31.80;39.55;100200.34;4424249;32;20293;-68
2022/08/02 03:33:12;;;;;;;;;;;;;;;32.18;38.81;100207.25;4424414;32;20270;-69
2022/08/02 03:35:39;;;;;;;;;;;;;;;32.04;39.17;100203.19;4423089;32;20079;-69
2022/08/02 03:38:05;;;;;;;;;;;;;;;32.29;38.53;100203.81;4422844;32;19986;-68
2022/08/02 03:40:30;;;;;;;;;;;;;;;32.88;37.74;100194.78;4424015;32;19997;-69
2022/08/02 03:42:56;;;;;;;;;;;;;;;32.35;38.51;100189.78;4423840;32;20441;-69
2022/08/02 03:45:23;;;;;;;;;;;;;;;32.65;38.01;100192.22;4424075;32;19965;-69
2022/08/02 03:47:49;;;;;;;;;;;;;;;32.51;38.22;100194.00;4423139;32;19960;-70
2022/08/02 03:50:15;;;;;;;;;;;;;;;32.55;38.10;100185.56;4421942;32;19979;-69
2022/08/02 03:52:41;;;;;;;;;;;;;;;32.47;38.25;100179.09;4422309;32;20405;-68
2022/08/02 03:55:07;;;;;;;;;;;;;;;32.63;38.00;100182.53;4423856;32;19980;-69
2022/08/02 03:57:37;;;;;;;;;;;;;;;32.32;38.58;100178.53;4422449;32;19972;-69
2022/08/02 04:00:03;;;;;;;;;;;;;;;32.63;37.96;100176.72;4422643;32;20357;-69
2022/08/02 04:02:29;;;;;;;;;;;;;;;33.23;36.98;100178.63;4421114;32;20013;-68
2022/08/02 04:04:54;;;;;;;;;;;;;;;32.58;37.95;100187.28;4421777;32;19958;-68
2022/08/02 04:07:20;;;;;;;;;;;;;;;32.98;37.43;100186.09;4423695;32;20004;-68
2022/08/02 04:09:45;;;;;;;;;;;;;;;33.02;37.48;100181.34;4422577;32;20148;-68
2022/08/02 04:12:11;;;;;;;;;;;;;;;33.09;37.33;100182.56;4423821;32;20224;-69
2022/08/02 04:14:36;;;;;;;;;;;;;;;33.53;36.35;100178.06;4422552;32;20021;-68
2022/08/02 04:17:04;;;;;;;;;;;;;;;33.72;36.26;100169.34;4424967;32;19965;-68
2022/08/02 04:19:32;;;;;;;;;;;;;;;33.51;36.75;100166.25;4421110;32;20355;-68
2022/08/02 04:22:00;;;;;;;;;;;;;;;33.91;36.12;100169.34;4423828;32;20406;-68
2022/08/02 04:24:27;;;;;;;;;;;;;;;33.48;36.77;100160.88;4422384;32;19964;-68
2022/08/02 04:26:55;;;;;;;;;;;;;;;33.36;37.04;100163.59;4421058;32;19987;-68
2022/08/02 04:29:21;;;;;;;;;;;;;;;33.86;36.21;100152.09;4422491;32;19965;-67
2022/08/02 04:31:47;;;;;;;;;;;;;;;33.89;36.26;100148.75;4424577;32;20307;-68
2022/08/02 04:34:12;;;;;;;;;;;;;;;33.27;37.37;100149.00;4422237;32;19967;-67
2022/08/02 04:36:39;;;;;;;;;;;;;;;33.26;37.35;100151.16;4423829;32;20387;-67
2022/08/02 04:39:04;;;;;;;;;;;;;;;33.14;37.79;100149.44;4423518;32;19989;-67
2022/08/02 04:44:12;;;;;;;;;;;;;;;33.82;36.84;100166.41;3950520;32;15722520;-68
2022/08/02 04:46:39;;;;;;;;;;;;;;;33.82;36.84;100166.41;4431666;32;19958;-68
2022/08/02 04:49:04;;;;;;;;;;;;;;;33.66;36.89;100171.03;4428702;32;20251;-68
2022/08/02 04:51:32;;;;;;;;;;;;;;;33.98;36.30;100161.78;4427866;32;20607;-68
2022/08/02 04:53:58;;;;;;;;;;;;;;;33.57;36.93;100165.94;4431586;32;20295;-68
2022/08/02 04:56:24;;;;;;;;;;;;;;;33.87;36.46;100188.72;4426424;32;21072;-68
2022/08/02 04:58:49;;;;;;;;;;;;;;;33.95;36.00;100190.09;4428181;32;20014;-68
2022/08/02 05:01:14;;;;;;;;;;;;;;;33.92;36.31;100194.25;4430344;32;20003;-68
2022/08/02 05:03:40;;;;;;;;;;;;;;;34.09;35.95;100193.31;4430235;32;20353;-68
2022/08/02 05:06:06;;;;;;;;;;;;;;;34.27;35.72;100191.75;4426800;32;20501;-67
2022/08/02 05:08:31;;;;;;;;;;;;;;;34.28;35.66;100199.09;4430793;32;20347;-69
2022/08/02 05:10:57;;;;;;;;;;;;;;;34.14;35.51;100215.56;4427620;32;20377;-68
2022/08/02 05:13:22;;;;;;;;;;;;;;;34.48;35.32;100209.38;4428186;32;20559;-68
2022/08/02 05:15:49;;;;;;;;;;;;;;;34.64;35.11;100213.50;4427386;32;20037;-68
2022/08/02 05:18:14;;;;;;;;;;;;;;;33.98;35.77;100209.28;4430636;32;19953;-68
2022/08/02 05:20:40;;;;;;;;;;;;;;;34.74;34.94;100210.53;4430039;32;20433;-68
2022/08/02 05:23:06;;;;;;;;;;;;;;;34.13;35.37;100202.34;4428646;32;20061;-67
2022/08/02 05:25:32;;;;;;;;;;;;;;;34.22;35.57;100193.59;4431263;32;19994;-67
2022/08/02 05:27:57;;;;;;;;;;;;;;;34.57;35.07;100188.12;4428528;32;20015;-67
2022/08/02 05:30:23;;;;;;;;;;;;;;;33.75;36.28;100184.84;4426947;32;20387;-68
2022/08/02 05:32:51;;;;;;;;;;;;;;;33.73;36.81;100185.47;4429205;32;19963;-67
2022/08/02 05:35:18;;;;;;;;;;;;;;;33.70;37.12;100174.25;4429844;32;19977;-67
2022/08/02 05:37:44;;;;;;;;;;;;;;;33.26;37.91;100173.72;4428789;32;19989;-66
2022/08/02 05:40:10;;;;;;;;;;;;;;;33.28;38.33;100170.97;4425996;32;19989;-66
2022/08/02 05:42:35;;;;;;;;;;;;;;;33.14;38.52;100182.31;4428539;32;19993;-67
2022/08/02 05:45:01;;;;;;;;;;;;;;;33.38;38.05;100171.78;4429548;32;20001;-67
2022/08/02 05:47:26;;;;;;;;;;;;;;;33.88;37.41;100178.56;4431661;32;20042;-66
2022/08/02 05:49:52;;;;;;;;;;;;;;;33.41;38.00;100168.38;4426781;32;20316;-66
2022/08/02 05:52:18;;;;;;;;;;;;;;;33.36;38.28;100174.50;4429094;32;19983;-66
2022/08/02 05:54:53;;;;;;;;;;;;;;;33.33;38.14;100172.81;4420658;32;19964;-66
2022/08/02 05:57:25;;;;;;;;;;;;;;;33.51;37.83;100174.25;4416241;32;20984;-67
2022/08/02 06:02:48;;;;;;;;;;;;;;;33.33;38.83;100191.09;3957202;31;15716794;-69
2022/08/02 06:05:15;;;;;;;;;;;;;;;33.33;38.83;100191.09;4441311;32;20021;-69
2022/08/02 06:07:43;;;;;;;;;;;;;;;33.14;38.89;100193.19;4441019;32;19971;-68
2022/08/02 06:10:09;;;;;;;;;;;;;;;32.81;38.95;100200.72;4423453;32;20027;-68
2022/08/02 06:12:39;;;;;;;;;;;;;;;33.30;38.51;100201.06;4440891;32;20181;-67
2022/08/02 06:15:04;;;;;;;;;;;;;;;33.06;39.11;100204.19;4443224;32;20212;-67
2022/08/02 06:17:31;;;;;;;;;;;;;;;32.95;39.41;100204.78;4445583;32;19972;-68
2022/08/02 06:19:59;;;;;;;;;;;;;;;33.16;38.94;100199.94;4442285;32;19997;-68
2022/08/02 06:22:26;;;;;;;;;;;;;;;32.85;39.56;100201.06;4442656;32;19957;-68
2022/08/02 06:24:53;;;;;;;;;;;;;;;33.40;38.70;100207.69;4441242;32;19972;-69
2022/08/02 06:27:19;;;;;;;;;;;;;;;33.14;39.13;100211.47;4443301;32;20635;-69
2022/08/02 06:29:47;;;;;;;;;;;;;;;33.32;39.03;100223.78;4442035;32;20015;-69
2022/08/02 06:32:16;;;;;;;;;;;;;;;33.00;39.25;100230.00;4440687;32;20022;-68
2022/08/02 06:34:42;;;;;;;;;;;;;;;32.90;39.70;100212.44;4440791;32;20447;-68
2022/08/02 06:37:12;;;;;;;;;;;;;;;33.03;39.31;100225.81;4441407;32;19961;-68
2022/08/02 06:39:49;;;;;;;;;;;;;;;33.36;38.90;100224.09;4442006;32;19991;-68
2022/08/02 06:42:16;;;;;;;;;;;;;;;33.54;38.52;100231.38;4438991;32;19963;-68
2022/08/02 06:44:42;;;;;;;;;;;;;;;32.99;39.21;100217.53;4441497;32;20638;-68
2022/08/02 06:47:08;;;;;;;;;;;;;;;33.08;39.21;100216.81;4437808;32;20001;-68
2022/08/02 06:49:34;;;;;;;;;;;;;;;33.06;39.24;100216.66;4441351;32;19979;-68
2022/08/02 06:51:59;;;;;;;;;;;;;;;33.20;39.22;100214.06;4442794;32;20031;-68
2022/08/02 06:54:25;;;;;;;;;;;;;;;33.91;37.94;100216.06;4440213;32;19990;-67
2022/08/02 06:56:50;;;;;;;;;;;;;;;33.83;38.25;100220.47;4438767;32;19997;-68
2022/08/02 06:59:15;;;;;;;;;;;;;;;33.65;38.51;100205.25;4438399;32;19971;-67
2022/08/02 07:01:41;;;;;;;;;;;;;;;33.99;38.03;100210.81;4440529;32;20372;-67
2022/08/02 07:04:08;;;;;;;;;;;;;;;33.90;37.96;100202.09;4440668;32;20000;-68
2022/08/02 07:06:33;;;;;;;;;;;;;;;33.90;38.11;100199.91;4440075;32;20283;-67
2022/08/02 07:08:59;;;;;;;;;;;;;;;33.58;38.50;100194.50;4439441;32;19953;-69
2022/08/02 07:11:24;;;;;;;;;;;;;;;34.05;37.94;100204.69;4436791;32;20847;-69
2022/08/02 07:13:49;;;;;;;;;;;;;;;33.67;38.17;100219.25;4434509;32;20003;-69
2022/08/02 07:16:15;;;;;;;;;;;;;;;33.76;38.31;100212.66;4430095;32;20001;-69
2022/08/02 07:18:41;;;;;;;;;;;;;;;33.56;38.44;100216.94;4431140;32;20001;-69
2022/08/02 07:21:06;;;;;;;;;;;;;;;33.71;38.66;100216.66;4431288;32;20415;-69
2022/08/02 07:23:32;;;;;;;;;;;;;;;33.34;39.02;100236.38;4434431;32;20037;-69
2022/08/02 07:25:58;;;;;;;;;;;;;;;33.57;38.82;100222.16;4430689;32;20013;-68
2022/08/02 07:28:23;;;;;;;;;;;;;;;33.17;39.36;100219.00;4430509;32;20004;-68
2022/08/02 07:30:49;;;;;;;;;;;;;;;33.33;39.05;100205.66;4426051;32;19961;-67
2022/08/02 07:33:15;;;;;;;;;;;;;;;33.07;39.65;100197.75;4431574;32;20000;-67
2022/08/02 07:35:40;;;;;;;;;;;;;;;33.51;38.88;100200.50;4435124;32;19996;-69
2022/08/02 07:38:06;;;;;;;;;;;;;;;32.92;40.08;100206.00;4430979;32;20315;-68
2022/08/02 07:40:32;;;;;;;;;;;;;;;33.37;39.34;100211.09;4430577;32;20388;-69
2022/08/02 07:42:57;;;;;;;;;;;;;;;33.38;39.09;100210.44;4428617;32;19953;-69
2022/08/02 07:45:23;;;;;;;;;;;;;;;33.35;39.54;100223.34;4429798;32;20041;-68
2022/08/02 07:47:49;;;;;;;;;;;;;;;33.66;39.38;100220.63;4433973;32;20201;-69
2022/08/02 07:50:16;;;;;;;;;;;;;;;33.42;39.52;100224.59;4430957;32;19960;-69
2022/08/02 07:52:42;;;;;;;;;;;;;;;33.51;39.26;100223.84;4428651;32;19957;-69
2022/08/02 07:55:09;;;;;;;;;;;;;;;33.98;38.88;100223.13;4431987;32;19988;-68
2022/08/02 07:57:34;;;;;;;;;;;;;;;33.76;38.93;100216.34;4431560;32;19997;-69
2022/08/02 08:00:00;;;;;;;;;;;;;;;33.60;38.97;100199.75;4428444;32;20383;-69
2022/08/02 08:02:26;;;;;;;;;;;;;;;33.92;38.49;100205.12;4429499;32;20032;-68
2022/08/02 08:04:52;;;;;;;;;;;;;;;33.41;38.78;100211.41;4430485;32;19956;-68
2022/08/02 08:07:17;;;;;;;;;;;;;;;33.87;38.43;100212.06;4431329;32;20657;-68
2022/08/02 08:09:44;;;;;;;;;;;;;;;33.07;39.39;100214.50;4441842;32;20250;-68
2022/08/02 08:12:10;;;;;;;;;;;;;;;32.97;40.31;100207.88;4426991;32;20050;-69
2022/08/02 08:14:36;;;;;;;;;;;;;;;33.64;39.28;100206.66;4429604;32;19957;-68
2022/08/02 08:17:02;;;;;;;;;;;;;;;33.21;40.05;100215.59;4428562;32;20007;-68
2022/08/02 08:19:28;;;;;;;;;;;;;;;33.29;39.69;100211.19;4431143;32;19965;-69
2022/08/02 08:21:53;;;;;;;;;;;;;;;33.79;39.02;100220.19;4428965;32;20609;-69
2022/08/02 08:24:18;;;;;;;;;;;;;;;33.58;39.42;100214.16;4431989;32;21063;-68
2022/08/02 08:26:44;;;;;;;;;;;;;;;33.03;40.03;100202.50;4430958;32;20290;-69
2022/08/02 08:29:09;;;;;;;;;;;;;;;32.63;41.12;100193.44;4428877;32;20017;-69
2022/08/02 08:31:35;;;;;;;;;;;;;;;32.93;40.62;100204.62;4427851;32;19981;-69
2022/08/02 08:34:01;;;;;;;;;;;;;;;32.67;41.37;100199.59;4430421;32;19957;-69
2022/08/02 08:36:27;;;;;;;;;;;;;;;33.07;40.93;100208.66;4430142;32;20380;-69
2022/08/02 08:38:52;;;;;;;;;;;;;;;33.32;40.11;100192.47;4427318;32;20063;-69
2022/08/02 08:41:18;;;;;;;;;;;;;;;33.48;40.05;100195.88;4426926;32;20081;-68
2022/08/02 08:43:45;;;;;;;;;;;;;;;34.06;39.08;100189.47;4428692;32;19992;-68
2022/08/02 08:46:14;;;;;;;;;;;;;;;33.44;39.71;100184.66;4431283;32;20001;-68
2022/08/02 08:48:43;;;;;;;;;;;;;;;34.01;39.21;100189.75;4424195;32;20007;-68
2022/08/02 08:51:13;;;;;;;;;;;;;;;33.64;39.61;100189.16;4430165;32;20001;-68
2022/08/02 08:53:41;;;;;;;;;;;;;;;33.73;39.63;100193.44;4432516;32;20520;-69
2022/08/02 08:56:07;;;;;;;;;;;;;;;33.70;39.60;100194.66;4430434;32;19989;-69
2022/08/02 08:58:33;;;;;;;;;;;;;;;34.32;38.80;100191.41;4425729;32;19996;-69
2022/08/02 09:00:59;;;;;;;;;;;;;;;33.77;39.06;100197.44;4427227;32;20004;-69
2022/08/02 09:03:24;;;;;;;;;;;;;;;33.69;39.43;100191.00;4426225;32;20009;-69
2022/08/02 09:05:50;;;;;;;;;;;;;;;33.69;39.79;100198.97;4430177;32;21459;-69
2022/08/02 09:08:17;;;;;;;;;;;;;;;33.71;39.97;100196.97;4428661;32;19957;-69
2022/08/02 09:10:44;;;;;;;;;;;;;;;33.48;40.41;100205.41;4428662;32;19992;-70
2022/08/02 09:13:19;;;;;;;;;;;;;;;33.88;39.65;100202.69;4429379;32;19957;-70
2022/08/02 09:15:51;;;;;;;;;;;;;;;34.38;39.39;100202.78;4429835;32;20330;-70
2022/08/02 09:18:17;;;;;;;;;;;;;;;33.91;39.46;100206.53;4425266;32;19963;-70
2022/08/02 09:20:59;;;;;;;;;;;;;;;34.92;38.48;100198.03;4432248;32;20020;-70
2022/08/02 09:23:26;;;;;;;;;;;;;;;34.86;38.38;100208.50;4429364;32;20422;-70
2022/08/02 09:25:56;;;;;;;;;;;;;;;34.46;38.66;100206.31;4425095;32;20467;-70
2022/08/02 09:28:25;;;;;;;;;;;;;;;34.83;38.59;100192.19;4426437;32;20008;-70
2022/08/02 09:30:50;;;;;;;;;;;;;;;35.24;37.95;100197.38;4430971;32;20113;-70
2022/08/02 09:33:24;;;;;;;;;;;;;;;35.71;37.20;100192.59;4426683;32;20322;-70
2022/08/02 09:36:13;;;;;;;;;;;;;;;35.60;37.10;100196.22;4425235;32;20118;-70
2022/08/02 09:38:40;;;;;;;;;;;;;;;35.66;37.17;100193.72;4428844;32;19999;-70
2022/08/02 09:41:18;;;;;;;;;;;;;;;35.42;37.17;100178.19;4426380;32;19983;-69
2022/08/02 09:43:44;;;;;;;;;;;;;;;35.80;36.83;100189.59;4429560;32;19986;-69
2022/08/02 09:46:10;;;;;;;;;;;;;;;35.43;37.21;100187.75;4421043;32;19989;-70
2022/08/02 09:48:45;;;;;;;;;;;;;;;34.97;37.84;100184.47;4427350;32;19986;-70
2022/08/02 09:51:10;;;;;;;;;;;;;;;34.88;37.87;100191.12;4427222;32;19963;-68
2022/08/02 09:53:36;;;;;;;;;;;;;;;34.41;38.69;100186.94;4428306;32;20445;-68
2022/08/02 09:56:01;;;;;;;;;;;;;;;35.15;38.01;100183.56;4428826;32;20001;-68
2022/08/02 09:58:27;;;;;;;;;;;;;;;35.94;36.97;100190.56;4430915;32;19997;-68
2022/08/02 10:00:54;;;;;;;;;;;;;;;35.96;35.93;100192.87;4428650;32;20338;-69
2022/08/02 10:03:19;;;;;;;;;;;;;;;36.94;35.17;100186.88;4427263;32;20007;-68
2022/08/02 10:05:48;;;;;;;;;;;;;;;36.83;34.45;100188.41;4425430;32;19953;-68
2022/08/02 10:08:14;;;;;;;;;;;;;;;36.60;34.66;100191.28;4429037;32;19962;-68
2022/08/02 10:10:40;;;;;;;;;;;;;;;36.65;34.14;100204.06;4432086;32;19971;-68
2022/08/02 10:13:07;;;;;;;;;;;;;;;36.92;34.23;100216.06;4424738;32;20015;-67
2022/08/02 10:15:34;;;;;;;;;;;;;;;36.28;34.42;100226.53;4429559;32;20016;-68
2022/08/02 10:18:00;;;;;;;;;;;;;;;36.42;34.44;100212.78;4429526;32;20437;-68
2022/08/02 10:20:26;;;;;;;;;;;;;;;36.91;33.66;100199.87;4427984;32;19997;-68
2022/08/02 10:22:52;;;;;;;;;;;;;;;36.53;33.85;100203.25;4428148;32;19992;-69
2022/08/02 10:25:19;;;;;;;;;;;;;;;36.10;33.96;100205.53;4428962;32;19958;-69
2022/08/02 10:27:45;;;;;;;;;;;;;;;36.27;34.36;100195.66;4430346;32;19961;-68
2022/08/02 10:30:11;;;;;;;;;;;;;;;36.48;34.27;100199.31;4427994;32;19996;-69
2022/08/02 10:32:38;;;;;;;;;;;;;;;37.00;33.44;100196.06;4428729;32;20001;-69
2022/08/02 10:35:08;;;;;;;;;;;;;;;37.05;32.60;100201.53;4427990;32;19988;-69
2022/08/02 10:37:36;;;;;;;;;;;;;;;37.62;32.16;100191.91;4428568;32;20011;-69
2022/08/02 10:40:01;;;;;;;;;;;;;;;37.26;32.50;100210.22;4429147;32;20369;-69
2022/08/02 10:42:43;;;;;;;;;;;;;;;37.48;32.47;100216.69;4429063;32;19992;-69
2022/08/02 10:45:11;;;;;;;;;;;;;;;37.68;31.56;100204.06;4428226;32;19953;-69
2022/08/02 10:47:36;;;;;;;;;;;;;;;38.03;31.56;100212.72;4429230;32;19990;-69
2022/08/02 10:50:02;;;;;;;;;;;;;;;38.47;30.86;100220.44;4431224;32;19961;-69
2022/08/02 10:52:29;;;;;;;;;;;;;;;38.39;30.81;100199.41;4430085;32;20012;-68
2022/08/02 10:54:56;;;;;;;;;;;;;;;38.41;30.48;100199.53;4428758;32;20027;-68
2022/08/02 10:57:23;;;;;;;;;;;;;;;38.45;30.47;100206.41;4440872;32;19993;-68
2022/08/02 10:59:50;;;;;;;;;;;;;;;39.05;29.69;100206.87;4430943;32;20543;-68
2022/08/02 11:02:36;;;;;;;;;;;;;;;38.76;29.67;100227.31;4431615;32;19977;-68
2022/08/02 11:05:04;;;;;;;;;;;;;;;38.42;30.46;100228.28;4432582;32;19984;-69
2022/08/02 11:07:32;;;;;;;;;;;;;;;38.88;29.88;100233.87;4431427;32;20012;-69
2022/08/02 11:09:59;;;;;;;;;;;;;;;37.90;30.77;100233.97;4430925;32;19961;-69
2022/08/02 11:12:26;;;;;;;;;;;;;;;37.95;30.28;100235.75;4428993;32;19968;-69
2022/08/02 11:15:00;;;;;;;;;;;;;;;38.18;30.34;100226.87;4431541;32;20032;-69
2022/08/02 11:17:28;;;;;;;;;;;;;;;38.32;30.10;100221.03;4426215;32;20310;-69
2022/08/02 11:20:13;;;;;;;;;;;;;;;37.49;31.16;100200.63;4430781;32;20012;-69
2022/08/02 11:22:39;;;;;;;;;;;;;;;38.46;30.04;100196.16;4431539;32;19977;-69
2022/08/02 11:27:57;;;;;;;;;;;;;;;38.15;29.85;100203.88;3961210;31;15786400;-70
2022/08/02 11:30:23;;;;;;;;;;;;;;;38.15;29.85;100203.88;4438678;32;20303;-70
2022/08/02 11:32:49;;;;;;;;;;;;;;;38.42;29.76;100184.19;4444487;32;20019;-70
2022/08/02 11:35:15;;;;;;;;;;;;;;;38.80;29.36;100200.31;4443173;32;20477;-70
2022/08/02 11:37:43;;;;;;;;;;;;;;;38.85;28.87;100196.16;4443961;32;20005;-70
2022/08/02 11:40:11;;;;;;;;;;;;;;;38.76;29.59;100182.41;4439630;32;19993;-70
2022/08/02 11:42:38;;;;;;;;;;;;;;;39.96;27.61;100179.34;4443283;32;20496;-70
2022/08/02 11:45:05;;;;;;;;;;;;;;;39.08;28.20;100190.88;4439513;32;19991;-70
2022/08/02 11:47:31;;;;;;;;;;;;;;;39.06;28.54;100201.78;4442806;32;20051;-70
2022/08/02 11:50:05;;;;;;;;;;;;;;;39.14;28.63;100181.62;4438303;32;20346;-70
2022/08/02 11:52:32;;;;;;;;;;;;;;;39.74;27.91;100184.81;4441217;32;20030;-70
2022/08/02 11:54:58;;;;;;;;;;;;;;;39.37;28.22;100179.19;4440331;32;20213;-70
2022/08/02 11:57:23;;;;;;;;;;;;;;;39.75;27.63;100186.34;4444187;32;20195;-70
2022/08/02 11:59:50;;;;;;;;;;;;;;;38.94;28.50;100181.25;4438290;32;20377;-69
2022/08/02 12:02:16;;;;;;;;;;;;;;;39.87;27.39;100187.00;4439507;32;19953;-69
2022/08/02 12:04:42;;;;;;;;;;;;;;;41.04;26.37;100209.03;4440838;32;19990;-69
2022/08/02 12:07:08;;;;;;;;;;;;;;;41.01;26.13;100212.56;4441063;32;19985;-68
2022/08/02 12:09:34;;;;;;;;;;;;;;;40.61;26.42;100222.44;4441733;32;19988;-69
2022/08/02 12:12:02;;;;;;;;;;;;;;;39.56;27.58;100225.88;4445696;32;20082;-69
2022/08/02 12:14:29;;;;;;;;;;;;;;;39.65;27.49;100224.13;4445984;32;19949;-69
2022/08/02 12:19:41;;;;;;;;;;;;;;;39.54;27.89;100205.16;4443047;32;19996;-69
2022/08/02 12:24:45;;;;;;;;;;;;;;;41.05;26.13;100215.72;3950617;32;15722081;-68
2022/08/02 12:27:27;;;;;;;;;;;;;;;41.05;26.13;100215.72;4414467;32;20347;-68
2022/08/02 12:29:57;;;;;;;;;;;;;;;40.54;26.21;100229.44;4425229;32;19993;-69
2022/08/02 12:32:23;;;;;;;;;;;;;;;40.55;26.07;100216.25;4426339;32;20307;-69
2022/08/02 12:35:00;;;;;;;;;;;;;;;41.98;24.84;100218.50;4426251;32;19957;-69
2022/08/02 12:37:25;;;;;;;;;;;;;;;41.84;24.06;100217.84;4425316;32;19953;-69
2022/08/02 12:39:52;;;;;;;;;;;;;;;42.38;23.73;100220.22;4424359;32;20004;-69
2022/08/02 12:42:18;;;;;;;;;;;;;;;42.71;23.20;100204.56;4427676;32;20009;-69
2022/08/02 12:44:52;;;;;;;;;;;;;;;41.49;24.32;100219.97;4425242;32;19981;-69
2022/08/02 12:47:20;;;;;;;;;;;;;;;41.69;23.88;100200.97;4428268;32;19992;-69
2022/08/02 12:49:45;;;;;;;;;;;;;;;41.38;24.17;100222.44;4424947;32;19949;-69
2022/08/02 12:52:26;;;;;;;;;;;;;;;42.76;23.11;100194.41;4426338;32;19972;-69